createdAt,value
2018-12-15T00:00:41.835Z,27.57
2018-12-15T00:03:14.687Z,30.87
2018-12-15T00:05:46.826Z,31.17
2018-12-15T00:08:17.151Z,31.37
2018-12-15T00:10:47.444Z,27.77
2018-12-15T00:13:17.624Z,23.07
2018-12-15T00:15:47.942Z,24.17
2018-12-15T00:18:18.123Z,25.23
2018-12-15T00:20:48.411Z,24.27
2018-12-15T00:23:18.795Z,23.33
2018-12-15T00:25:48.887Z,20.70
2018-12-15T00:28:19.081Z,17.87
2018-12-15T00:30:49.287Z,18.57
2018-12-15T00:33:19.410Z,18.33
2018-12-15T00:35:49.735Z,16.27
2018-12-15T00:38:19.830Z,17.53
2018-12-15T00:40:50.103Z,17.13
2018-12-15T00:43:20.393Z,14.77
2018-12-15T00:45:50.628Z,20.27
2018-12-15T00:48:21.567Z,19.47
2018-12-15T00:50:51.899Z,19.07
2018-12-15T00:53:22.080Z,17.77
2018-12-15T00:55:52.329Z,17.67
2018-12-15T00:58:22.641Z,22.83
2018-12-15T01:00:52.859Z,16.77
2018-12-15T01:03:23.238Z,18.70
2018-12-15T01:05:53.644Z,16.93
2018-12-15T01:08:23.881Z,18.90
2018-12-15T01:10:54.172Z,16.80
2018-12-15T01:13:24.543Z,22.30
2018-12-15T01:15:54.829Z,28.60
2018-12-15T01:18:24.946Z,24.80
2018-12-15T01:20:55.211Z,25.50
2018-12-15T01:23:25.453Z,21.93
2018-12-15T01:25:56.387Z,21.80
2018-12-15T01:28:27.101Z,20.93
2018-12-15T01:30:57.324Z,24.00
2018-12-15T01:33:27.589Z,23.37
2018-12-15T01:35:57.920Z,23.30
2018-12-15T01:38:28.177Z,23.63
2018-12-15T01:40:58.459Z,19.90
2018-12-15T01:43:28.637Z,21.03
2018-12-15T01:45:59.041Z,19.53
2018-12-15T01:48:29.310Z,20.70
2018-12-15T01:50:59.871Z,20.60
2018-12-15T01:53:30.165Z,16.47
2018-12-15T01:56:00.377Z,16.93
2018-12-15T01:58:30.642Z,17.40
2018-12-15T02:01:00.859Z,17.53
2018-12-15T02:03:30.956Z,18.47
2018-12-15T02:06:01.280Z,16.47
2018-12-15T02:08:31.453Z,15.10
2018-12-15T02:11:03.561Z,17.03
2018-12-15T02:13:33.788Z,18.60
2018-12-15T02:16:04.402Z,16.43
2018-12-15T02:18:35.080Z,17.47
2018-12-15T02:21:05.331Z,16.77
2018-12-15T02:23:35.512Z,17.53
2018-12-15T02:26:05.755Z,17.00
2018-12-15T02:28:35.940Z,18.07
2018-12-15T02:31:06.354Z,15.57
2018-12-15T02:33:36.616Z,17.07
2018-12-15T02:36:07.003Z,17.23
2018-12-15T02:38:37.316Z,17.77
2018-12-15T02:41:07.764Z,16.87
2018-12-15T02:43:38.439Z,16.90
2018-12-15T02:46:08.998Z,17.60
2018-12-15T02:48:39.248Z,16.27
2018-12-15T02:51:10.417Z,18.17
2018-12-15T02:53:40.713Z,17.27
2018-12-15T02:56:11.304Z,15.43
2018-12-15T02:58:41.459Z,18.90
2018-12-15T03:01:11.781Z,20.30
2018-12-15T03:03:41.988Z,21.13
2018-12-15T03:06:12.241Z,16.97
2018-12-15T03:08:42.482Z,18.57
2018-12-15T03:11:12.713Z,19.60
2018-12-15T03:13:42.990Z,19.77
2018-12-15T03:16:13.442Z,19.87
2018-12-15T03:18:43.659Z,16.07
2018-12-15T03:21:14.004Z,16.37
2018-12-15T03:23:44.862Z,18.43
2018-12-15T03:26:15.470Z,18.93
2018-12-15T03:28:45.676Z,19.10
2018-12-15T03:31:15.902Z,17.53
2018-12-15T03:33:46.173Z,17.10
2018-12-15T03:36:16.450Z,18.70
2018-12-15T03:38:46.714Z,19.43
2018-12-15T03:41:16.970Z,18.37
2018-12-15T03:43:47.085Z,18.93
2018-12-15T03:46:17.155Z,22.77
2018-12-15T03:48:47.316Z,20.50
2018-12-15T03:51:17.986Z,21.93
2018-12-15T03:53:48.146Z,24.63
2018-12-15T03:56:18.274Z,18.47
2018-12-15T03:58:48.532Z,19.47
2018-12-15T04:01:18.589Z,22.10
2018-12-15T04:03:48.855Z,21.80
2018-12-15T04:06:19.141Z,28.23
2018-12-15T04:08:49.324Z,24.73
2018-12-15T04:11:19.900Z,26.07
2018-12-15T04:13:50.016Z,26.47
2018-12-15T04:16:20.242Z,35.00
2018-12-15T04:18:50.426Z,26.63
2018-12-15T04:21:20.803Z,27.87
2018-12-15T04:23:51.114Z,21.50
2018-12-15T04:26:21.312Z,23.63
2018-12-15T04:28:53.334Z,19.20
2018-12-15T04:31:23.522Z,21.47
2018-12-15T04:33:53.704Z,18.93
2018-12-15T04:36:23.837Z,18.10
2018-12-15T04:38:54.040Z,21.30
2018-12-15T04:41:24.270Z,24.87
2018-12-15T04:43:54.524Z,21.00
2018-12-15T04:46:24.745Z,21.73
2018-12-15T04:48:54.875Z,23.20
2018-12-15T04:51:25.137Z,18.80
2018-12-15T04:53:55.539Z,20.37
2018-12-15T04:56:25.854Z,19.70
2018-12-15T04:58:56.192Z,19.37
2018-12-15T05:01:26.401Z,18.93
2018-12-15T05:03:56.615Z,18.67
2018-12-15T05:06:27.523Z,17.50
2018-12-15T05:08:57.717Z,17.63
2018-12-15T05:11:27.987Z,25.97
2018-12-15T05:13:58.202Z,18.77
2018-12-15T05:16:28.649Z,16.27
2018-12-15T05:18:58.881Z,18.43
2018-12-15T05:21:29.298Z,17.67
2018-12-15T05:23:59.618Z,24.50
2018-12-15T05:26:29.742Z,71.60
2018-12-15T05:29:01.161Z,24.17
2018-12-15T05:31:32.164Z,28.83
2018-12-15T05:34:02.403Z,41.60
2018-12-15T05:36:33.603Z,27.73
2018-12-15T05:39:05.102Z,28.97
2018-12-15T05:41:36.390Z,25.13
2018-12-15T05:44:06.501Z,22.53
2018-12-15T05:46:36.788Z,22.47
2018-12-15T05:49:06.903Z,21.90
2018-12-15T05:51:37.221Z,23.33
2018-12-15T05:54:07.481Z,19.63
2018-12-15T05:56:37.577Z,26.47
2018-12-15T05:59:07.811Z,32.23
2018-12-15T06:01:38.805Z,25.67
2018-12-15T06:04:08.914Z,31.00
2018-12-15T06:06:39.045Z,52.07
2018-12-15T06:09:09.461Z,28.23
2018-12-15T06:11:39.773Z,28.20
2018-12-15T06:14:10.704Z,26.23
2018-12-15T06:16:40.929Z,26.73
2018-12-15T06:19:11.149Z,72.57
2018-12-15T06:21:41.231Z,35.77
2018-12-15T06:24:11.585Z,38.27
2018-12-15T06:26:41.932Z,26.77
2018-12-15T06:29:12.080Z,28.37
2018-12-15T06:31:42.702Z,28.33
2018-12-15T06:34:12.658Z,26.00
2018-12-15T06:36:42.637Z,44.23
2018-12-15T06:39:12.619Z,74.60
2018-12-15T06:41:42.598Z,108.87
2018-12-15T06:44:12.584Z,31.87
2018-12-15T06:46:42.877Z,29.33
2018-12-15T06:49:13.237Z,31.40
2018-12-15T06:51:44.214Z,33.87
2018-12-15T06:54:14.554Z,29.50
2018-12-15T06:56:44.754Z,28.47
2018-12-15T06:59:15.012Z,23.97
2018-12-15T07:01:45.264Z,23.30
2018-12-15T07:04:15.459Z,26.17
2018-12-15T07:06:45.626Z,26.00
2018-12-15T07:09:15.787Z,25.17
2018-12-15T07:11:46.283Z,23.23
2018-12-15T07:14:16.411Z,29.73
2018-12-15T07:16:46.715Z,24.27
2018-12-15T07:19:17.035Z,25.53
2018-12-15T07:21:47.293Z,29.27
2018-12-15T07:24:17.560Z,33.93
2018-12-15T07:26:47.747Z,37.43
2018-12-15T07:29:18.089Z,42.53
2018-12-15T07:31:48.192Z,35.33
2018-12-15T07:34:18.454Z,28.27
2018-12-15T07:36:48.761Z,37.27
2018-12-15T07:39:19.066Z,30.17
2018-12-15T07:41:49.214Z,31.60
2018-12-15T07:44:19.465Z,82.63
2018-12-15T07:46:49.712Z,90.70
2018-12-15T07:49:20.015Z,75.97
2018-12-15T07:51:50.335Z,113.07
2018-12-15T07:54:20.775Z,113.57
2018-12-15T07:56:50.966Z,141.47
2018-12-15T07:59:21.109Z,196.90
2018-12-15T08:01:51.520Z,209.27
2018-12-15T08:04:21.817Z,218.17
2018-12-15T08:06:52.044Z,186.30
2018-12-15T08:09:22.398Z,176.83
2018-12-15T08:11:57.848Z,161.10
2018-12-15T08:14:28.359Z,106.50
2018-12-15T08:16:58.794Z,80.53
2018-12-15T08:19:29.706Z,57.87
2018-12-15T08:21:59.912Z,60.30
2018-12-15T08:24:30.120Z,71.70
2018-12-15T08:27:00.463Z,50.40
2018-12-15T08:29:30.924Z,44.97
2018-12-15T08:32:01.162Z,40.87
2018-12-15T08:34:31.344Z,43.70
2018-12-15T08:37:01.589Z,51.00
2018-12-15T08:39:31.725Z,34.90
2018-12-15T08:42:01.842Z,29.60
2018-12-15T08:44:32.249Z,21.67
2018-12-15T08:47:02.513Z,24.47
2018-12-15T08:49:32.891Z,21.43
2018-12-15T08:52:03.088Z,30.03
2018-12-15T08:54:33.348Z,24.17
2018-12-15T08:57:03.561Z,16.80
2018-12-15T08:59:33.744Z,19.30
2018-12-15T09:02:04.037Z,21.00
2018-12-15T09:04:34.298Z,20.93
2018-12-15T09:07:05.046Z,42.90
2018-12-15T09:09:35.188Z,21.23
2018-12-15T09:12:05.399Z,20.27
2018-12-15T09:14:36.805Z,19.77
2018-12-15T09:17:07.225Z,20.00
2018-12-15T09:19:37.712Z,18.97
2018-12-15T09:22:11.460Z,17.67
2018-12-15T09:24:41.324Z,13.60
2018-12-15T09:27:11.408Z,12.87
2018-12-15T09:29:41.500Z,10.93
2018-12-15T09:32:11.715Z,11.30
2018-12-15T09:34:41.990Z,13.73
2018-12-15T09:37:12.243Z,15.40
2018-12-15T09:39:43.606Z,17.50
2018-12-15T09:42:13.768Z,14.07
2018-12-15T09:44:43.929Z,16.20
2018-12-15T09:47:14.370Z,18.17
2018-12-15T09:49:44.729Z,12.37
2018-12-15T09:52:15.055Z,13.87
2018-12-15T09:54:45.359Z,14.77
2018-12-15T09:57:15.623Z,13.63
2018-12-15T09:59:46.021Z,13.20
2018-12-15T10:02:16.314Z,13.40
2018-12-15T10:04:46.592Z,13.67
2018-12-15T10:07:16.920Z,19.30
2018-12-15T10:09:47.325Z,12.77
2018-12-15T10:12:17.680Z,18.17
2018-12-15T10:14:47.858Z,20.00
2018-12-15T10:17:18.869Z,19.87
2018-12-15T10:19:49.147Z,15.93
2018-12-15T10:22:19.400Z,15.97
2018-12-15T10:24:49.682Z,14.40
2018-12-15T10:27:20.581Z,14.03
2018-12-15T10:29:56.244Z,15.37
2018-12-15T10:32:31.597Z,17.00
2018-12-15T10:35:01.850Z,14.13
2018-12-15T10:37:32.017Z,12.30
2018-12-15T10:40:03.211Z,20.83
2018-12-15T10:42:34.545Z,14.30
2018-12-15T10:45:05.239Z,11.97
2018-12-15T10:47:35.625Z,13.77
2018-12-15T10:50:06.976Z,12.87
2018-12-15T10:52:37.372Z,12.17
2018-12-15T10:55:09.078Z,13.43
2018-12-15T10:57:40.417Z,13.67
2018-12-15T11:00:17.933Z,15.27
2018-12-15T11:02:50.364Z,15.00
2018-12-15T11:05:20.779Z,17.10
2018-12-15T11:07:51.444Z,19.47
2018-12-15T11:10:21.730Z,19.60
2018-12-15T11:12:51.753Z,15.83
2018-12-15T11:15:22.000Z,14.57
2018-12-15T11:17:52.429Z,18.43
2018-12-15T11:20:22.698Z,16.17
2018-12-15T11:22:52.948Z,15.43
2018-12-15T11:25:23.267Z,15.33
2018-12-15T11:27:53.376Z,36.33
2018-12-15T11:30:23.718Z,39.50
2018-12-15T11:32:53.919Z,263.53
2018-12-15T11:35:24.185Z,26.40
2018-12-15T11:37:54.452Z,24.63
2018-12-15T11:40:24.728Z,40.17
2018-12-15T11:42:55.074Z,16.17
2018-12-15T11:45:25.216Z,20.37
2018-12-15T11:47:55.407Z,33.47
2018-12-15T11:50:26.893Z,26.03
2018-12-15T11:52:57.143Z,85.70
2018-12-15T11:55:27.383Z,17.37
2018-12-15T11:57:57.492Z,14.63
2018-12-15T12:00:28.684Z,15.27
2018-12-15T12:02:58.890Z,15.63
2018-12-15T12:05:29.111Z,16.90
2018-12-15T12:07:59.627Z,16.97
2018-12-15T12:10:29.972Z,16.00
2018-12-15T12:13:01.863Z,14.53
2018-12-15T12:15:32.504Z,14.90
2018-12-15T12:18:02.804Z,16.17
2018-12-15T12:20:35.162Z,17.60
2018-12-15T12:23:05.490Z,15.77
2018-12-15T12:25:37.672Z,17.97
2018-12-15T12:28:09.921Z,14.33
2018-12-15T12:30:40.088Z,15.63
2018-12-15T12:33:11.381Z,13.17
2018-12-15T12:35:41.577Z,15.90
2018-12-15T12:38:11.901Z,13.00
2018-12-15T12:40:42.068Z,16.20
2018-12-15T12:43:13.022Z,17.63
2018-12-15T12:45:43.344Z,16.40
2018-12-15T12:48:13.748Z,16.47
2018-12-15T12:50:44.011Z,17.30
2018-12-15T12:53:14.213Z,18.37
2018-12-15T12:55:45.195Z,18.20
2018-12-15T12:58:15.296Z,19.37
2018-12-15T13:00:45.612Z,20.60
2018-12-15T13:03:15.904Z,17.13
2018-12-15T13:05:46.172Z,23.50
2018-12-15T13:08:16.452Z,20.20
2018-12-15T13:10:46.673Z,15.40
2018-12-15T13:13:17.738Z,17.80
2018-12-15T13:15:47.971Z,19.10
2018-12-15T13:18:18.499Z,16.90
2018-12-15T13:20:48.820Z,15.60
2018-12-15T13:23:19.073Z,15.20
2018-12-15T13:25:49.436Z,16.60
2018-12-15T13:28:19.525Z,17.83
2018-12-15T13:30:49.863Z,17.77
2018-12-15T13:33:32.377Z,18.60
2018-12-15T13:36:02.844Z,19.20
2018-12-15T13:38:33.073Z,18.17
2018-12-15T13:41:03.419Z,17.30
2018-12-15T13:43:33.537Z,18.17
2018-12-15T13:46:03.936Z,16.33
2018-12-15T13:48:34.284Z,16.40
2018-12-15T13:51:04.494Z,20.70
2018-12-15T13:53:34.882Z,20.47
2018-12-15T13:56:05.185Z,19.27
2018-12-15T13:58:35.647Z,15.90
2018-12-15T14:01:06.121Z,16.57
2018-12-15T14:03:36.459Z,18.40
2018-12-15T14:06:06.640Z,19.43
2018-12-15T14:08:37.111Z,16.00
2018-12-15T14:11:07.598Z,20.23
2018-12-15T14:13:37.901Z,20.33
2018-12-15T14:16:08.175Z,18.30
2018-12-15T14:18:38.579Z,31.50
2018-12-15T14:21:08.811Z,28.53
2018-12-15T14:23:39.748Z,21.63
2018-12-15T14:26:09.969Z,21.33
2018-12-15T14:28:40.352Z,20.00
2018-12-15T14:31:10.571Z,23.60
2018-12-15T14:33:40.720Z,23.43
2018-12-15T14:36:11.722Z,24.20
2018-12-15T14:38:42.061Z,20.90
2018-12-15T14:41:12.292Z,22.80
2018-12-15T14:43:42.501Z,18.00
2018-12-15T14:46:12.746Z,19.37
2018-12-15T14:48:42.948Z,19.00
2018-12-15T14:51:13.183Z,29.13
2018-12-15T14:53:43.289Z,23.77
2018-12-15T14:56:13.945Z,19.60
2018-12-15T14:58:44.179Z,20.93
2018-12-15T15:01:15.132Z,19.77
2018-12-15T15:03:45.451Z,23.47
2018-12-15T15:06:15.624Z,19.30
2018-12-15T15:08:46.565Z,20.63
2018-12-15T15:11:16.998Z,20.80
2018-12-15T15:13:47.389Z,19.00
2018-12-15T15:16:17.770Z,21.33
2018-12-15T15:18:48.091Z,18.77
2018-12-15T15:21:18.505Z,21.53
2018-12-15T15:23:48.810Z,19.40
2018-12-15T15:26:19.081Z,21.00
2018-12-15T15:28:49.460Z,25.20
2018-12-15T15:31:19.924Z,22.97
2018-12-15T15:33:50.243Z,23.00
2018-12-15T15:36:20.609Z,21.53
2018-12-15T15:38:50.857Z,21.87
2018-12-15T15:41:21.146Z,21.93
2018-12-15T15:43:51.485Z,19.43
2018-12-15T15:46:21.863Z,17.87
2018-12-15T15:48:53.278Z,19.03
2018-12-15T15:51:24.279Z,21.13
2018-12-15T15:53:54.617Z,22.93
2018-12-15T15:56:25.039Z,20.87
2018-12-15T15:58:55.409Z,21.80
2018-12-15T16:01:25.702Z,29.20
2018-12-15T16:03:56.115Z,39.50
2018-12-15T16:06:26.559Z,29.93
2018-12-15T16:08:56.970Z,23.23
2018-12-15T16:11:29.160Z,21.57
2018-12-15T16:13:59.588Z,22.47
2018-12-15T16:16:34.996Z,22.43
2018-12-15T16:19:05.509Z,20.83
2018-12-15T16:21:35.653Z,21.90
2018-12-15T16:24:06.005Z,19.70
2018-12-15T16:26:37.354Z,22.10
2018-12-15T16:29:07.761Z,26.40
2018-12-15T16:31:38.240Z,25.53
2018-12-15T16:34:08.611Z,32.03
2018-12-15T16:36:39.018Z,23.97
2018-12-15T16:39:09.353Z,44.70
2018-12-15T16:41:42.376Z,46.60
2018-12-15T16:44:12.366Z,49.40
2018-12-15T16:46:42.577Z,32.53
2018-12-15T16:49:12.777Z,28.73
2018-12-15T16:51:43.153Z,26.10
2018-12-15T16:54:13.551Z,28.07
2018-12-15T16:56:43.924Z,25.50
2018-12-15T16:59:14.149Z,23.37
2018-12-15T17:01:44.683Z,24.00
2018-12-15T17:04:15.121Z,38.70
2018-12-15T17:06:45.418Z,57.40
2018-12-15T17:09:16.728Z,58.17
2018-12-15T17:11:47.099Z,58.90
2018-12-15T17:14:17.663Z,43.90
2018-12-15T17:16:47.957Z,39.33
2018-12-15T17:19:18.307Z,35.20
2018-12-15T17:21:48.755Z,31.33
2018-12-15T17:24:19.259Z,31.60
2018-12-15T17:26:49.566Z,21.33
2018-12-15T17:29:19.987Z,30.23
2018-12-15T17:31:50.324Z,35.53
2018-12-15T17:34:20.477Z,74.17
2018-12-15T17:36:50.803Z,24.20
2018-12-15T17:39:22.418Z,21.27
2018-12-15T17:41:52.904Z,41.50
2018-12-15T17:44:23.963Z,41.27
2018-12-15T17:46:54.164Z,23.73
2018-12-15T17:49:24.521Z,19.70
2018-12-15T17:51:54.712Z,24.30
2018-12-15T17:54:25.068Z,27.60
2018-12-15T17:56:55.464Z,31.53
2018-12-15T17:59:25.690Z,27.53
2018-12-15T18:01:55.934Z,31.10
2018-12-15T18:04:26.260Z,24.07
2018-12-15T18:06:56.436Z,25.57
2018-12-15T18:09:26.639Z,24.63
2018-12-15T18:11:56.879Z,27.70
2018-12-15T18:14:27.149Z,24.00
2018-12-15T18:16:57.530Z,23.23
2018-12-15T18:19:28.057Z,25.60
2018-12-15T18:21:58.213Z,28.40
2018-12-15T18:24:29.538Z,27.10
2018-12-15T18:26:59.766Z,35.13
2018-12-15T18:29:30.041Z,22.70
2018-12-15T18:32:00.472Z,20.07
2018-12-15T18:34:30.756Z,17.70
2018-12-15T18:37:00.936Z,17.67
2018-12-15T18:39:31.247Z,18.80
2018-12-15T18:42:01.631Z,20.83
2018-12-15T18:44:32.079Z,19.60
2018-12-15T18:47:02.351Z,17.03
2018-12-15T18:49:32.610Z,18.83
2018-12-15T18:52:02.863Z,17.80
2018-12-15T18:54:34.269Z,16.73
2018-12-15T18:57:04.999Z,19.97
2018-12-15T18:59:35.529Z,23.77
2018-12-15T19:02:06.024Z,28.87
2018-12-15T19:04:36.473Z,23.47
2018-12-15T19:07:06.782Z,16.63
2018-12-15T19:09:36.989Z,18.57
2018-12-15T19:12:07.366Z,18.40
2018-12-15T19:14:37.784Z,21.10
2018-12-15T19:17:08.154Z,25.13
2018-12-15T19:19:38.689Z,21.43
2018-12-15T19:22:08.913Z,18.00
2018-12-15T19:24:39.166Z,18.17
2018-12-15T19:27:09.530Z,16.47
2018-12-15T19:29:39.805Z,17.90
2018-12-15T19:32:11.079Z,19.40
2018-12-15T19:34:41.346Z,17.50
2018-12-15T19:37:11.583Z,18.07
2018-12-15T19:39:41.805Z,22.53
2018-12-15T19:42:12.015Z,18.87
2018-12-15T19:44:42.289Z,19.20
2018-12-15T19:47:12.464Z,18.17
2018-12-15T19:49:42.774Z,23.47
2018-12-15T19:52:13.073Z,17.00
2018-12-15T19:54:43.274Z,18.03
2018-12-15T19:57:13.717Z,19.07
2018-12-15T19:59:43.931Z,29.97
2018-12-15T20:02:14.151Z,16.53
2018-12-15T20:04:44.326Z,18.20
2018-12-15T20:07:14.613Z,18.00
2018-12-15T20:09:44.842Z,9.53
2018-12-15T20:12:15.032Z,17.57
2018-12-15T20:14:46.012Z,16.00
2018-12-15T20:17:16.313Z,26.00
2018-12-15T20:19:47.147Z,55.40
2018-12-15T20:22:17.552Z,46.30
2018-12-15T20:24:47.817Z,36.93
2018-12-15T20:27:18.078Z,50.90
2018-12-15T20:29:48.297Z,42.10
2018-12-15T20:32:18.566Z,36.13
2018-12-15T20:34:48.877Z,36.47
2018-12-15T20:37:19.244Z,47.43
2018-12-15T20:39:49.579Z,30.47
2018-12-15T20:42:19.839Z,46.60
2018-12-15T20:44:49.923Z,53.73
2018-12-15T20:47:20.161Z,61.40
2018-12-15T20:49:50.462Z,53.77
2018-12-15T20:52:20.726Z,61.27
2018-12-15T20:54:51.029Z,69.50
2018-12-15T20:57:21.222Z,90.93
2018-12-15T20:59:51.430Z,43.37
2018-12-15T21:02:21.870Z,27.30
2018-12-15T21:04:52.148Z,100.77
2018-12-15T21:07:22.422Z,101.30
2018-12-15T21:09:52.932Z,91.67
2018-12-15T21:12:23.220Z,104.97
2018-12-15T21:14:53.881Z,86.43
2018-12-15T21:17:24.472Z,68.57
2018-12-15T21:19:54.706Z,103.10
2018-12-15T21:22:24.880Z,77.07
2018-12-15T21:24:56.204Z,77.53
2018-12-15T21:27:26.449Z,59.67
2018-12-15T21:29:56.628Z,118.87
2018-12-15T21:32:26.860Z,74.33
2018-12-15T21:34:57.161Z,94.70
2018-12-15T21:37:27.561Z,74.60
2018-12-15T21:39:57.764Z,97.77
2018-12-15T21:42:28.061Z,81.07
2018-12-15T21:44:58.281Z,98.13
2018-12-15T21:47:28.730Z,116.23
2018-12-15T21:49:58.901Z,126.43
2018-12-15T21:52:29.125Z,61.57
2018-12-15T21:54:59.363Z,56.57
2018-12-15T21:57:29.647Z,70.60
2018-12-15T21:59:59.936Z,80.67
2018-12-15T22:02:30.020Z,59.90
2018-12-15T22:05:00.109Z,73.83
2018-12-15T22:07:30.574Z,77.50
2018-12-15T22:10:00.777Z,69.97
2018-12-15T22:12:30.940Z,62.07
2018-12-15T22:15:01.164Z,65.37
2018-12-15T22:17:32.126Z,72.87
2018-12-15T22:20:02.586Z,64.30
2018-12-15T22:22:32.775Z,72.30
2018-12-15T22:25:03.056Z,73.70
2018-12-15T22:27:33.296Z,76.90
2018-12-15T22:30:03.829Z,74.17
2018-12-15T22:32:33.939Z,60.80
2018-12-15T22:35:04.716Z,67.30
2018-12-15T22:37:34.962Z,56.20
2018-12-15T22:40:07.212Z,49.67
2018-12-15T22:42:37.425Z,41.60
2018-12-15T22:45:08.104Z,68.70
2018-12-15T22:47:38.296Z,65.87
2018-12-15T22:50:09.168Z,66.40
2018-12-15T22:52:39.395Z,59.47
2018-12-15T22:55:09.547Z,36.70
2018-12-15T22:57:39.707Z,62.83
2018-12-15T23:00:12.610Z,66.23
2018-12-15T23:02:44.870Z,34.47
2018-12-15T23:05:15.160Z,28.50
2018-12-15T23:07:45.528Z,31.00
2018-12-15T23:10:15.941Z,30.73
2018-12-15T23:12:46.203Z,31.97
2018-12-15T23:15:16.354Z,19.50
2018-12-15T23:17:46.548Z,19.10
2018-12-15T23:20:17.008Z,20.70
2018-12-15T23:22:47.232Z,20.17
2018-12-15T23:25:17.619Z,18.10
2018-12-15T23:27:47.798Z,21.10
2018-12-15T23:30:18.110Z,20.47
2018-12-15T23:32:48.274Z,15.83
2018-12-15T23:35:19.426Z,16.43
2018-12-15T23:37:49.684Z,16.40
2018-12-15T23:40:20.287Z,21.00
2018-12-15T23:42:51.068Z,16.70
2018-12-15T23:45:21.200Z,13.30
2018-12-15T23:47:51.400Z,16.00
2018-12-15T23:50:21.712Z,18.17
2018-12-15T23:52:52.514Z,16.70
2018-12-15T23:55:23.335Z,20.10
2018-12-15T23:57:53.601Z,18.20
